Time;durP1;ratioP1;P1;durP2;ratioP2;P2;SDS_P1;SDS_P2;PMS_P1;PMS_P2;Temp;Humidity;BMP_temperature;BMP_pressure;BME280_temperature;BME280_humidity;BME280_pressure;Samples;Min_cycle;Max_cycle;Signal;HPM_P1;HPM_P2
2023/01/28 00:01:50;;;;;;;27.37;11.73;;;;;;;;;;5053310;28;20030;-77
2023/01/28 00:04:15;;;;;;;31.47;14.57;;;;;;;;;;5053541;28;20546;-76
2023/01/28 00:06:41;;;;;;;41.13;13.83;;;;;;;;;;5051718;28;20032;-79
2023/01/28 00:09:08;;;;;;;39.70;13.90;;;;;;;;;;5053351;28;20040;-78
2023/01/28 00:11:33;;;;;;;34.77;13.23;;;;;;;;;;5053373;28;20171;-77
2023/01/28 00:13:59;;;;;;;30.50;14.03;;;;;;;;;;5052197;28;20128;-78
2023/01/28 00:16:30;;;;;;;36.27;15.07;;;;;;;;;;5052934;28;20017;-79
2023/01/28 00:18:55;;;;;;;37.97;13.50;;;;;;;;;;5051850;28;20116;-77
2023/01/28 00:21:22;;;;;;;36.53;15.30;;;;;;;;;;5052134;28;20055;-75
2023/01/28 00:23:51;;;;;;;39.57;13.67;;;;;;;;;;5051533;28;20036;-78
2023/01/28 00:26:17;;;;;;;43.43;14.43;;;;;;;;;;5055307;28;20035;-79
2023/01/28 00:28:43;;;;;;;33.60;13.20;;;;;;;;;;5057256;28;20103;-78
2023/01/28 00:31:15;;;;;;;37.10;12.40;;;;;;;;;;5057913;28;20333;-78
2023/01/28 00:33:42;;;;;;;35.00;14.17;;;;;;;;;;5055274;28;20036;-78
2023/01/28 00:36:08;;;;;;;37.30;13.47;;;;;;;;;;5056370;28;20021;-79
2023/01/28 00:38:34;;;;;;;36.83;16.13;;;;;;;;;;5055255;28;20040;-78
2023/01/28 00:41:14;;;;;;;38.03;16.47;;;;;;;;;;5056760;28;20032;-77
2023/01/28 00:43:40;;;;;;;43.53;15.53;;;;;;;;;;5055131;28;20041;-79
2023/01/28 00:46:07;;;;;;;40.97;15.10;;;;;;;;;;5054882;28;20496;-74
2023/01/28 00:48:34;;;;;;;43.07;17.90;;;;;;;;;;5055376;28;20071;-76
2023/01/28 00:50:59;;;;;;;37.47;14.50;;;;;;;;;;5056365;28;20025;-77
2023/01/28 00:53:25;;;;;;;38.00;13.67;;;;;;;;;;5056310;28;20036;-76
2023/01/28 00:55:51;;;;;;;42.93;15.60;;;;;;;;;;5056624;28;20025;-78
2023/01/28 00:58:17;;;;;;;40.47;13.90;;;;;;;;;;5056630;28;20032;-78
2023/01/28 01:00:43;;;;;;;42.20;15.90;;;;;;;;;;5054948;28;20090;-78
2023/01/28 01:03:09;;;;;;;45.10;16.50;;;;;;;;;;5055100;28;20063;-75
2023/01/28 01:05:35;;;;;;;40.17;16.87;;;;;;;;;;5056067;28;20040;-76
2023/01/28 01:08:01;;;;;;;41.90;15.73;;;;;;;;;;5055945;28;20473;-79
2023/01/28 01:10:27;;;;;;;49.67;17.23;;;;;;;;;;5056241;28;20112;-76
2023/01/28 01:12:54;;;;;;;40.57;15.73;;;;;;;;;;5055808;28;20392;-77
2023/01/28 01:15:19;;;;;;;41.90;15.40;;;;;;;;;;5055651;28;20108;-75
2023/01/28 01:17:48;;;;;;;40.77;13.87;;;;;;;;;;5054204;28;20116;-75
2023/01/28 01:20:19;;;;;;;38.67;14.50;;;;;;;;;;5054332;28;20436;-75
2023/01/28 01:22:45;;;;;;;44.70;16.63;;;;;;;;;;5054145;28;20024;-73
2023/01/28 01:25:13;;;;;;;36.87;15.93;;;;;;;;;;5055464;28;20120;-80
2023/01/28 01:27:39;;;;;;;47.00;17.20;;;;;;;;;;5054451;28;20107;-74
2023/01/28 01:30:06;;;;;;;42.97;15.43;;;;;;;;;;5054246;28;20052;-75
2023/01/28 01:32:36;;;;;;;46.80;18.43;;;;;;;;;;5053901;28;20035;-76
2023/01/28 01:35:05;;;;;;;39.10;14.87;;;;;;;;;;5054048;28;20385;-77
2023/01/28 01:37:31;;;;;;;45.77;17.77;;;;;;;;;;5055543;28;20037;-74
2023/01/28 01:39:56;;;;;;;45.50;16.73;;;;;;;;;;5055382;28;20108;-74
2023/01/28 01:42:24;;;;;;;44.47;16.57;;;;;;;;;;5053795;28;20047;-74
2023/01/28 01:45:03;;;;;;;46.93;17.33;;;;;;;;;;5054801;28;20056;-77
2023/01/28 01:47:35;;;;;;;48.73;16.77;;;;;;;;;;5055506;28;20040;-77
2023/01/28 01:50:06;;;;;;;41.42;14.93;;;;;;;;;;5037249;28;20398;-78
2023/01/28 01:52:34;;;;;;;42.90;16.80;;;;;;;;;;5055083;28;20035;-74
2023/01/28 01:55:03;;;;;;;49.43;16.47;;;;;;;;;;5055189;28;20021;-74
2023/01/28 01:57:33;;;;;;;43.63;17.20;;;;;;;;;;5055261;28;20036;-78
2023/01/28 02:00:05;;;;;;;43.90;18.13;;;;;;;;;;5055597;28;20044;-74
2023/01/28 02:02:38;;;;;;;49.80;18.08;;;;;;;;;;5054971;28;20321;-73
2023/01/28 02:05:05;;;;;;;52.10;17.23;;;;;;;;;;5055076;28;20473;-74
2023/01/28 02:07:30;;;;;;;46.87;16.63;;;;;;;;;;5054696;28;20033;-74
2023/01/28 02:09:56;;;;;;;47.00;15.53;;;;;;;;;;5053296;28;20500;-74
2023/01/28 02:12:34;;;;;;;47.90;17.20;;;;;;;;;;5053616;28;20017;-75
2023/01/28 02:15:04;;;;;;;45.33;16.77;;;;;;;;;;5054935;28;20082;-78
2023/01/28 02:17:30;;;;;;;47.07;16.40;;;;;;;;;;5054475;28;20059;-74
2023/01/28 02:19:59;;;;;;;39.10;14.70;;;;;;;;;;5053327;28;20024;-74
2023/01/28 02:22:31;;;;;;;47.37;16.07;;;;;;;;;;5054552;28;20025;-76
2023/01/28 02:25:12;;;;;;;45.67;15.67;;;;;;;;;;5054913;28;20024;-74
2023/01/28 02:28:10;;;;;;;45.00;16.52;;;;;;;;;;5053605;28;20098;-77
2023/01/28 02:30:42;;;;;;;43.77;16.13;;;;;;;;;;5054711;28;20021;-77
2023/01/28 02:33:14;;;;;;;43.87;17.13;;;;;;;;;;5053501;28;20016;-78
2023/01/28 02:35:45;;;;;;;45.33;17.37;;;;;;;;;;5054278;28;20473;-73
2023/01/28 02:38:25;;;;;;;56.00;18.57;;;;;;;;;;5054466;28;20032;-75
2023/01/28 02:41:00;;;;;;;41.73;16.80;;;;;;;;;;5054036;28;20021;-74
2023/01/28 02:43:35;;;;;;;36.17;15.53;;;;;;;;;;5053999;28;20041;-78
2023/01/28 02:48:55;;;;;;;41.43;15.17;;;;;;;;;;5053998;28;20076;-77
2023/01/28 02:51:40;;;;;;;33.93;13.53;;;;;;;;;;5054142;28;20488;-78
2023/01/28 02:54:13;;;;;;;56.97;16.67;;;;;;;;;;5054514;28;20025;-74
2023/01/28 02:56:51;;;;;;;52.00;15.03;;;;;;;;;;5052807;28;20488;-75
2023/01/28 02:59:30;;;;;;;45.07;16.77;;;;;;;;;;5054499;28;20020;-74
2023/01/28 03:02:34;;;;;;;36.53;14.40;;;;;;;;;;5052694;28;20028;-77
2023/01/28 03:05:24;;;;;;;43.53;15.83;;;;;;;;;;5041398;28;20035;-75
2023/01/28 03:07:51;;;;;;;41.67;16.03;;;;;;;;;;5053715;28;20056;-78
2023/01/28 03:10:20;;;;;;;32.60;12.90;;;;;;;;;;5053865;28;20032;-74
2023/01/28 03:38:40;;;;;;;39.93;15.17;;;;;;;;;;5052584;28;20055;-78
2023/01/28 03:41:08;;;;;;;42.73;13.93;;;;;;;;;;5051899;28;20488;-78
2023/01/28 03:43:34;;;;;;;34.67;14.10;;;;;;;;;;5051688;28;20045;-73
2023/01/28 03:46:00;;;;;;;36.40;13.50;;;;;;;;;;5052937;28;20025;-77
2023/01/28 03:48:27;;;;;;;38.93;15.43;;;;;;;;;;5051671;28;20028;-77
2023/01/28 03:50:54;;;;;;;35.30;13.90;;;;;;;;;;5052919;28;20021;-74
2023/01/28 03:53:21;;;;;;;35.20;13.97;;;;;;;;;;5051298;28;20043;-74
2023/01/28 03:55:49;;;;;;;33.93;14.23;;;;;;;;;;5052941;28;20079;-74
2023/01/28 03:58:16;;;;;;;37.97;14.97;;;;;;;;;;5051162;28;20108;-78
2023/01/28 04:00:42;;;;;;;33.90;12.83;;;;;;;;;;5050527;28;20101;-75
2023/01/28 04:03:14;;;;;;;39.33;13.17;;;;;;;;;;5052727;28;20420;-73
2023/01/28 04:05:44;;;;;;;36.10;13.93;;;;;;;;;;5052708;28;20060;-76
2023/01/28 04:08:10;;;;;;;40.83;14.37;;;;;;;;;;5051095;28;20028;-78
2023/01/28 04:10:38;;;;;;;37.07;13.60;;;;;;;;;;5052589;28;20120;-75
2023/01/28 04:13:04;;;;;;;31.33;13.80;;;;;;;;;;5051178;28;20482;-78
2023/01/28 04:15:29;;;;;;;33.83;11.63;;;;;;;;;;5052666;28;20082;-74
2023/01/28 04:17:55;;;;;;;27.47;11.27;;;;;;;;;;5052567;28;20381;-76
2023/01/28 04:20:21;;;;;;;28.43;12.37;;;;;;;;;;5051163;28;20056;-75
2023/01/28 04:22:46;;;;;;;31.33;11.87;;;;;;;;;;5051019;28;20123;-77
2023/01/28 04:25:12;;;;;;;35.13;13.13;;;;;;;;;;5051117;28;20607;-78
2023/01/28 04:27:38;;;;;;;29.37;12.13;;;;;;;;;;5052588;28;20021;-79
2023/01/28 04:30:03;;;;;;;32.97;12.57;;;;;;;;;;5051101;28;20115;-79
2023/01/28 04:32:29;;;;;;;29.70;12.90;;;;;;;;;;5050985;28;20021;-74
2023/01/28 04:34:54;;;;;;;32.80;13.03;;;;;;;;;;5051007;28;20025;-78
2023/01/28 04:37:20;;;;;;;33.03;13.23;;;;;;;;;;5052233;28;20025;-74
2023/01/28 04:39:45;;;;;;;33.23;13.27;;;;;;;;;;5052287;28;20032;-74
2023/01/28 04:42:11;;;;;;;26.43;12.73;;;;;;;;;;5051204;28;20049;-74
2023/01/28 04:44:36;;;;;;;35.17;12.93;;;;;;;;;;5051110;28;20053;-74
2023/01/28 04:47:02;;;;;;;29.07;13.47;;;;;;;;;;5050858;28;20044;-74
2023/01/28 04:49:27;;;;;;;31.97;12.70;;;;;;;;;;5052416;28;20029;-78
2023/01/28 04:51:53;;;;;;;30.70;11.37;;;;;;;;;;5051164;28;20428;-78
2023/01/28 04:54:18;;;;;;;29.53;11.93;;;;;;;;;;5051011;28;20105;-74
2023/01/28 04:56:44;;;;;;;34.23;11.63;;;;;;;;;;5052173;28;20031;-75
2023/01/28 04:59:09;;;;;;;30.53;11.97;;;;;;;;;;5051059;28;20396;-74
2023/01/28 05:01:35;;;;;;;26.20;10.10;;;;;;;;;;5052096;28;20029;-77
2023/01/28 05:04:04;;;;;;;25.70;10.60;;;;;;;;;;5050778;28;20025;-76
2023/01/28 05:06:30;;;;;;;25.93;10.80;;;;;;;;;;5050697;28;20446;-75
2023/01/28 05:08:56;;;;;;;33.10;10.53;;;;;;;;;;5050478;28;20025;-74
2023/01/28 05:11:22;;;;;;;21.90;9.17;;;;;;;;;;5053652;28;20108;-75
2023/01/28 05:13:48;;;;;;;18.97;9.03;;;;;;;;;;5054659;28;20107;-78
2023/01/28 05:16:14;;;;;;;19.87;9.73;;;;;;;;;;5055795;28;20107;-78
2023/01/28 05:18:39;;;;;;;17.37;8.60;;;;;;;;;;5055774;28;20036;-74
2023/01/28 05:21:05;;;;;;;20.60;9.37;;;;;;;;;;5055651;28;20052;-77
2023/01/28 05:23:31;;;;;;;22.43;8.97;;;;;;;;;;5055636;28;20104;-78
2023/01/28 05:25:56;;;;;;;22.33;8.80;;;;;;;;;;5053940;28;20299;-74
2023/01/28 05:28:22;;;;;;;18.83;8.27;;;;;;;;;;5054065;28;20029;-77
2023/01/28 05:30:47;;;;;;;22.20;8.97;;;;;;;;;;5054052;28;20060;-74
2023/01/28 05:33:13;;;;;;;14.93;8.00;;;;;;;;;;5054041;28;20056;-78
2023/01/28 05:35:38;;;;;;;17.63;8.30;;;;;;;;;;5053890;28;20020;-78
2023/01/28 05:38:04;;;;;;;17.17;7.83;;;;;;;;;;5054585;28;20037;-79
2023/01/28 05:40:30;;;;;;;19.57;8.83;;;;;;;;;;5053795;28;20131;-77
2023/01/28 05:42:56;;;;;;;20.37;8.40;;;;;;;;;;5053716;28;20045;-77
2023/01/28 05:45:22;;;;;;;20.73;8.90;;;;;;;;;;5055308;28;20394;-78
2023/01/28 05:47:48;;;;;;;20.67;8.63;;;;;;;;;;5055129;28;20028;-74
2023/01/28 05:50:14;;;;;;;21.67;8.73;;;;;;;;;;5054035;28;20095;-76
2023/01/28 05:52:39;;;;;;;19.13;8.17;;;;;;;;;;5055953;28;20025;-78
2023/01/28 05:55:05;;;;;;;18.27;8.13;;;;;;;;;;5053839;28;20388;-78
2023/01/28 05:57:31;;;;;;;18.30;8.73;;;;;;;;;;5053797;28;20032;-77
2023/01/28 05:59:56;;;;;;;17.93;9.03;;;;;;;;;;5053812;28;20079;-77
2023/01/28 06:02:23;;;;;;;15.63;7.50;;;;;;;;;;5055634;28;20029;-78
2023/01/28 06:04:48;;;;;;;14.47;7.07;;;;;;;;;;5053867;28;20053;-74
2023/01/28 06:07:18;;;;;;;15.20;7.80;;;;;;;;;;5054592;28;20065;-73
2023/01/28 06:09:44;;;;;;;18.47;8.30;;;;;;;;;;5053359;28;20503;-73
2023/01/28 06:12:09;;;;;;;16.87;7.60;;;;;;;;;;5054820;28;20029;-74
2023/01/28 06:14:35;;;;;;;23.60;8.40;;;;;;;;;;5053241;28;20112;-75
2023/01/28 06:17:00;;;;;;;13.77;6.93;;;;;;;;;;5037916;28;20118;-78
2023/01/28 06:19:26;;;;;;;16.73;8.87;;;;;;;;;;5053499;28;20029;-74
2023/01/28 06:21:53;;;;;;;18.87;8.37;;;;;;;;;;5054115;28;20032;-78
2023/01/28 06:24:18;;;;;;;15.03;7.47;;;;;;;;;;5052701;28;20021;-74
2023/01/28 06:26:44;;;;;;;15.03;7.17;;;;;;;;;;5054875;28;20354;-74
2023/01/28 06:29:09;;;;;;;20.77;8.43;;;;;;;;;;5054677;28;20082;-79
2023/01/28 06:31:35;;;;;;;20.87;8.00;;;;;;;;;;5053266;28;20067;-75
2023/01/28 06:34:00;;;;;;;17.07;8.00;;;;;;;;;;5053142;28;20052;-75
2023/01/28 06:36:26;;;;;;;15.37;7.80;;;;;;;;;;5054205;28;20025;-78
2023/01/28 06:38:51;;;;;;;19.93;8.70;;;;;;;;;;5054202;28;20035;-74
2023/01/28 06:41:17;;;;;;;23.00;8.30;;;;;;;;;;5053963;28;20465;-75
2023/01/28 06:43:43;;;;;;;14.43;7.73;;;;;;;;;;5052684;28;20159;-74
2023/01/28 06:46:09;;;;;;;13.77;6.60;;;;;;;;;;5052627;28;20033;-78
2023/01/28 06:48:35;;;;;;;14.83;7.27;;;;;;;;;;5052596;28;20024;-73
2023/01/28 06:51:00;;;;;;;18.50;7.17;;;;;;;;;;5054130;28;20025;-79
2023/01/28 06:53:26;;;;;;;12.00;6.73;;;;;;;;;;5052528;28;20448;-80
2023/01/28 06:55:52;;;;;;;14.43;6.57;;;;;;;;;;5052601;28;20489;-74
2023/01/28 06:58:17;;;;;;;16.37;6.60;;;;;;;;;;5052416;28;20388;-79
2023/01/28 07:00:43;;;;;;;15.00;7.00;;;;;;;;;;5053956;28;20036;-74
2023/01/28 07:03:08;;;;;;;17.87;7.60;;;;;;;;;;5053616;28;20033;-73
2023/01/28 07:05:33;;;;;;;14.87;6.60;;;;;;;;;;5053952;28;20504;-78
2023/01/28 07:08:01;;;;;;;10.93;5.70;;;;;;;;;;5054019;28;20037;-75
2023/01/28 07:10:26;;;;;;;16.70;7.00;;;;;;;;;;5052694;28;20035;-79
2023/01/28 07:12:52;;;;;;;14.20;6.97;;;;;;;;;;5052886;28;20119;-73
2023/01/28 07:15:17;;;;;;;13.33;5.73;;;;;;;;;;5053764;28;20109;-74
2023/01/28 07:17:43;;;;;;;13.33;6.07;;;;;;;;;;5052552;28;20120;-78
2023/01/28 07:20:12;;;;;;;12.00;6.50;;;;;;;;;;5053829;28;20452;-75
2023/01/28 07:22:40;;;;;;;11.70;5.90;;;;;;;;;;5035942;28;20036;-79
2023/01/28 07:25:07;;;;;;;10.77;5.93;;;;;;;;;;5053698;28;20055;-79
2023/01/28 07:27:33;;;;;;;10.03;5.43;;;;;;;;;;5053413;28;20362;-75
2023/01/28 07:29:58;;;;;;;10.73;5.70;;;;;;;;;;5053072;28;20106;-74
2023/01/28 07:32:26;;;;;;;11.90;6.33;;;;;;;;;;5051811;28;20094;-75
2023/01/28 07:34:54;;;;;;;12.30;5.73;;;;;;;;;;5053004;28;20036;-75
2023/01/28 07:37:20;;;;;;;14.60;5.73;;;;;;;;;;5051831;28;20140;-79
2023/01/28 07:39:46;;;;;;;10.77;5.20;;;;;;;;;;5053154;28;20056;-79
2023/01/28 07:42:12;;;;;;;11.10;5.47;;;;;;;;;;5053397;28;20097;-79
2023/01/28 07:44:38;;;;;;;11.03;5.17;;;;;;;;;;5051495;28;20053;-74
2023/01/28 07:47:04;;;;;;;11.33;5.37;;;;;;;;;;5052014;28;20503;-79
2023/01/28 07:49:30;;;;;;;6.97;4.30;;;;;;;;;;5051651;28;20040;-79
2023/01/28 07:51:57;;;;;;;9.73;5.30;;;;;;;;;;5052893;28;20029;-74
2023/01/28 07:54:22;;;;;;;9.63;5.50;;;;;;;;;;5051386;28;20075;-74
2023/01/28 07:56:47;;;;;;;9.17;4.47;;;;;;;;;;5051647;28;20117;-75
2023/01/28 07:59:13;;;;;;;9.87;5.23;;;;;;;;;;5053330;28;20033;-77
2023/01/28 08:01:41;;;;;;;10.30;4.90;;;;;;;;;;5051583;28;20086;-78
2023/01/28 08:04:07;;;;;;;7.77;4.17;;;;;;;;;;5052696;28;20037;-79
2023/01/28 08:06:36;;;;;;;7.50;4.43;;;;;;;;;;5051515;28;20378;-80
2023/01/28 08:09:04;;;;;;;11.23;5.13;;;;;;;;;;5052671;28;20028;-79
2023/01/28 08:11:31;;;;;;;9.70;4.40;;;;;;;;;;5051303;28;20441;-75
2023/01/28 08:13:57;;;;;;;9.47;4.73;;;;;;;;;;5051155;28;20511;-79
2023/01/28 08:16:22;;;;;;;7.97;4.90;;;;;;;;;;5052444;28;20025;-74
2023/01/28 08:18:48;;;;;;;8.63;4.43;;;;;;;;;;5053077;28;20449;-77
2023/01/28 08:21:13;;;;;;;10.10;4.20;;;;;;;;;;5052886;28;20452;-79
2023/01/28 08:23:39;;;;;;;9.63;4.40;;;;;;;;;;5051353;28;20108;-76
2023/01/28 08:26:05;;;;;;;10.83;5.50;;;;;;;;;;5051174;28;20081;-79
2023/01/28 08:28:31;;;;;;;8.60;5.07;;;;;;;;;;5052602;28;20104;-78
2023/01/28 08:30:59;;;;;;;8.67;4.83;;;;;;;;;;5051748;28;20111;-79
2023/01/28 08:33:25;;;;;;;7.63;4.27;;;;;;;;;;5052317;28;20480;-79
2023/01/28 08:35:51;;;;;;;8.80;4.30;;;;;;;;;;5050906;28;20048;-75
2023/01/28 08:38:16;;;;;;;5.47;3.83;;;;;;;;;;5052245;28;20032;-75
2023/01/28 08:40:42;;;;;;;8.23;4.27;;;;;;;;;;5051656;28;20369;-74
2023/01/28 08:43:08;;;;;;;9.87;4.67;;;;;;;;;;5051032;28;20044;-77
2023/01/28 08:45:34;;;;;;;8.33;4.47;;;;;;;;;;5053166;28;20112;-74
2023/01/28 08:48:02;;;;;;;11.90;4.03;;;;;;;;;;5056636;28;20360;-75
2023/01/28 08:50:34;;;;;;;6.63;3.33;;;;;;;;;;5055384;28;20032;-74
2023/01/28 08:53:02;;;;;;;8.25;4.68;;;;;;;;;;5056514;28;20047;-76
2023/01/28 08:55:28;;;;;;;7.60;3.93;;;;;;;;;;5054781;28;20025;-79
2023/01/28 08:57:53;;;;;;;7.43;4.33;;;;;;;;;;5054735;28;20422;-80
2023/01/28 09:00:20;;;;;;;6.30;4.20;;;;;;;;;;5055030;28;20048;-79
2023/01/28 09:02:46;;;;;;;7.53;4.10;;;;;;;;;;5056367;28;20021;-78
2023/01/28 09:05:13;;;;;;;5.87;3.93;;;;;;;;;;5056390;28;20469;-76
2023/01/28 09:07:39;;;;;;;11.40;5.17;;;;;;;;;;5056394;28;20028;-78
2023/01/28 09:10:05;;;;;;;8.07;4.10;;;;;;;;;;5056063;28;20021;-79
2023/01/28 09:12:31;;;;;;;8.23;4.77;;;;;;;;;;5054561;28;20029;-79
2023/01/28 09:14:57;;;;;;;10.30;4.20;;;;;;;;;;5054699;28;20044;-75
2023/01/28 09:17:23;;;;;;;9.13;3.80;;;;;;;;;;5056020;28;20020;-77
2023/01/28 09:19:49;;;;;;;7.40;4.00;;;;;;;;;;5054570;28;20036;-79
2023/01/28 09:22:14;;;;;;;7.90;4.43;;;;;;;;;;5054257;28;20025;-77
2023/01/28 09:24:40;;;;;;;9.10;4.60;;;;;;;;;;5056063;28;20441;-76
2023/01/28 09:27:06;;;;;;;9.60;3.80;;;;;;;;;;5054722;28;20057;-75
2023/01/28 09:29:33;;;;;;;9.47;4.33;;;;;;;;;;5054206;28;20074;-76
2023/01/28 09:31:59;;;;;;;11.37;4.67;;;;;;;;;;5037951;28;20151;-79
2023/01/28 09:34:24;;;;;;;7.63;4.23;;;;;;;;;;5053911;28;20484;-78
2023/01/28 09:36:50;;;;;;;9.57;3.97;;;;;;;;;;5053853;28;20052;-78
2023/01/28 09:39:15;;;;;;;10.07;4.67;;;;;;;;;;5054145;28;20456;-78
2023/01/28 09:42:05;;;;;;;8.63;4.50;;;;;;;;;;5054121;28;20025;-76
2023/01/28 09:44:39;;;;;;;6.70;4.27;;;;;;;;;;5053512;28;20040;-79
2023/01/28 09:47:45;;;;;;;6.87;4.57;;;;;;;;;;5053735;28;20461;-76
2023/01/28 09:50:22;;;;;;;8.93;4.30;;;;;;;;;;5036509;28;20033;-79
2023/01/28 09:52:49;;;;;;;7.10;4.20;;;;;;;;;;5055119;28;20044;-76
2023/01/28 09:55:30;;;;;;;10.03;4.87;;;;;;;;;;5055742;28;20521;-80
2023/01/28 09:57:56;;;;;;;14.97;5.67;;;;;;;;;;5053804;28;20085;-78
2023/01/28 10:00:27;;;;;;;8.03;4.57;;;;;;;;;;5054138;28;20052;-76
2023/01/28 10:03:04;;;;;;;7.47;5.40;;;;;;;;;;5053644;28;20590;-77
2023/01/28 10:05:51;;;;;;;8.03;4.77;;;;;;;;;;5053665;28;20035;-76
2023/01/28 10:08:44;;;;;;;6.77;4.83;;;;;;;;;;5054359;28;20035;-77
2023/01/28 10:11:10;;;;;;;11.47;4.97;;;;;;;;;;5053325;28;20032;-78
2023/01/28 10:14:08;;;;;;;11.97;5.10;;;;;;;;;;5053430;28;20028;-77
2023/01/28 10:16:36;;;;;;;9.00;4.73;;;;;;;;;;5053358;28;20452;-79
2023/01/28 10:19:09;;;;;;;9.40;5.23;;;;;;;;;;5055068;28;20029;-78
2023/01/28 10:21:45;;;;;;;7.93;3.77;;;;;;;;;;5053061;28;20032;-78
2023/01/28 10:24:17;;;;;;;5.87;3.37;;;;;;;;;;5055018;28;20116;-78
2023/01/28 10:26:43;;;;;;;11.60;5.03;;;;;;;;;;5053570;28;20036;-78
2023/01/28 10:29:32;;;;;;;12.80;4.83;;;;;;;;;;5053124;28;20087;-78
2023/01/28 10:32:24;;;;;;;9.37;4.23;;;;;;;;;;5053109;28;20427;-76
2023/01/28 10:34:52;;;;;;;8.32;4.45;;;;;;;;;;5052343;28;20037;-76
2023/01/28 10:37:18;;;;;;;14.00;5.37;;;;;;;;;;5052681;28;20443;-78
2023/01/28 10:39:44;;;;;;;12.83;5.50;;;;;;;;;;5035944;28;20036;-79
2023/01/28 10:42:25;;;;;;;17.33;5.10;;;;;;;;;;5052848;28;20430;-79
2023/01/28 10:44:55;;;;;;;10.48;5.05;;;;;;;;;;5054199;28;20055;-75
2023/01/28 10:47:28;;;;;;;15.23;4.67;;;;;;;;;;5054097;28;20425;-79
2023/01/28 10:49:58;;;;;;;14.53;7.10;;;;;;;;;;5052834;28;20031;-77
2023/01/28 10:52:24;;;;;;;14.27;5.57;;;;;;;;;;5052780;28;20092;-75
2023/01/28 10:55:04;;;;;;;13.23;5.23;;;;;;;;;;5052526;28;20029;-76
2023/01/28 10:57:32;;;;;;;7.63;4.43;;;;;;;;;;5052659;28;20457;-78
2023/01/28 11:00:10;;;;;;;11.57;5.27;;;;;;;;;;5054260;28;20436;-79
2023/01/28 11:02:36;;;;;;;8.77;5.53;;;;;;;;;;5052317;28;20029;-76
2023/01/28 11:05:01;;;;;;;11.93;5.67;;;;;;;;;;5053612;28;20385;-79
2023/01/28 11:07:27;;;;;;;10.10;6.07;;;;;;;;;;5052079;28;20032;-77
2023/01/28 11:09:52;;;;;;;9.93;5.47;;;;;;;;;;5053411;28;20036;-77
2023/01/28 11:15:50;;;;;;;9.90;5.63;;;;;;;;;;5051451;28;20405;-75
2023/01/28 11:18:21;;;;;;;9.05;4.57;;;;;;;;;;5053486;28;20021;-75
2023/01/28 11:20:52;;;;;;;8.73;4.57;;;;;;;;;;5051982;28;20141;-78
2023/01/28 11:23:28;;;;;;;11.32;5.28;;;;;;;;;;5053262;28;20025;-77
2023/01/28 11:26:13;;;;;;;10.57;4.60;;;;;;;;;;5052039;28;20435;-76
2023/01/28 11:28:40;;;;;;;10.10;4.53;;;;;;;;;;5053688;28;20116;-78
2023/01/28 11:31:07;;;;;;;9.23;5.23;;;;;;;;;;5053594;28;20031;-78
2023/01/28 11:33:44;;;;;;;10.63;4.30;;;;;;;;;;5053542;28;20025;-79
2023/01/28 11:36:17;;;;;;;8.87;4.20;;;;;;;;;;5052446;28;20021;-79
2023/01/28 11:38:59;;;;;;;10.23;5.23;;;;;;;;;;5053098;28;20021;-76
2023/01/28 11:41:36;;;;;;;11.23;6.00;;;;;;;;;;5051960;28;20436;-79
2023/01/28 11:44:21;;;;;;;11.50;6.37;;;;;;;;;;5051708;28;20098;-77
2023/01/28 11:46:46;;;;;;;14.93;5.80;;;;;;;;;;5052732;28;20021;-75
2023/01/28 11:49:31;;;;;;;11.07;5.00;;;;;;;;;;5053090;28;20107;-75
2023/01/28 11:52:24;;;;;;;10.27;4.93;;;;;;;;;;5053238;28;20052;-77
2023/01/28 11:55:14;;;;;;;8.77;4.25;;;;;;;;;;5053331;28;20441;-76
2023/01/28 11:57:42;;;;;;;20.20;5.87;;;;;;;;;;5052710;28;20469;-80
2023/01/28 12:00:38;;;;;;;8.70;4.87;;;;;;;;;;5051170;28;20021;-75
2023/01/28 12:03:58;;;;;;;18.67;6.20;;;;;;;;;;5051244;28;20021;-78
2023/01/28 12:07:15;;;;;;;10.57;4.33;;;;;;;;;;5040498;28;20037;-76
2023/01/28 12:09:49;;;;;;;14.73;6.30;;;;;;;;;;5040800;28;20040;-79
2023/01/28 12:12:15;;;;;;;12.03;6.37;;;;;;;;;;5052143;28;20492;-78
2023/01/28 12:14:59;;;;;;;13.23;5.10;;;;;;;;;;5052785;28;20051;-76
2023/01/28 12:18:02;;;;;;;22.93;6.03;;;;;;;;;;5051344;28;20496;-75
2023/01/28 12:20:54;;;;;;;10.03;4.17;;;;;;;;;;5052305;28;20090;-76
2023/01/28 12:23:32;;;;;;;11.38;5.20;;;;;;;;;;5051245;28;20388;-75
2023/01/28 12:26:03;;;;;;;11.50;4.53;;;;;;;;;;5052424;28;20092;-77
2023/01/28 12:28:43;;;;;;;8.03;4.27;;;;;;;;;;5052451;28;20025;-77
2023/01/28 12:31:57;;;;;;;7.30;4.37;;;;;;;;;;5050943;28;20020;-79
2023/01/28 12:34:48;;;;;;;7.73;4.00;;;;;;;;;;5051041;28;20029;-78
2023/01/28 12:37:44;;;;;;;16.13;4.20;;;;;;;;;;5052841;28;20024;-75
2023/01/28 12:40:27;;;;;;;8.47;3.97;;;;;;;;;;5052492;28;20075;-75
2023/01/28 12:43:02;;;;;;;8.93;3.83;;;;;;;;;;5052790;28;20061;-76
2023/01/28 12:45:33;;;;;;;11.93;4.17;;;;;;;;;;5051256;28;20071;-77
2023/01/28 12:48:20;;;;;;;11.52;4.55;;;;;;;;;;5050664;28;20036;-75
2023/01/28 12:51:03;;;;;;;7.33;3.40;;;;;;;;;;5052317;28;20035;-77
2023/01/28 12:53:31;;;;;;;9.53;3.87;;;;;;;;;;5052617;28;20120;-79
2023/01/28 12:56:14;;;;;;;9.60;3.40;;;;;;;;;;5052526;28;20071;-77
2023/01/28 12:58:56;;;;;;;6.33;3.60;;;;;;;;;;5052774;28;20025;-77
2023/01/28 13:01:37;;;;;;;14.00;5.35;;;;;;;;;;5051181;28;20078;-78
2023/01/28 13:04:21;;;;;;;5.72;3.63;;;;;;;;;;5053026;28;20033;-76
2023/01/28 13:07:05;;;;;;;9.13;4.10;;;;;;;;;;5050933;28;20424;-78
2023/01/28 13:09:35;;;;;;;12.43;4.13;;;;;;;;;;5053488;28;20021;-77
2023/01/28 13:12:02;;;;;;;7.43;4.50;;;;;;;;;;5052951;28;20021;-76
2023/01/28 13:14:31;;;;;;;10.00;5.07;;;;;;;;;;5050997;28;20540;-79
2023/01/28 13:17:11;;;;;;;14.73;5.07;;;;;;;;;;5052354;28;20091;-76
2023/01/28 13:19:40;;;;;;;9.67;3.37;;;;;;;;;;5052177;28;20024;-79
2023/01/28 13:22:25;;;;;;;10.87;4.10;;;;;;;;;;5051252;28;20025;-79
2023/01/28 13:24:50;;;;;;;5.20;3.30;;;;;;;;;;5052540;28;20048;-77
2023/01/28 13:27:25;;;;;;;7.87;3.53;;;;;;;;;;5052004;28;20036;-77
2023/01/28 13:30:20;;;;;;;15.47;3.73;;;;;;;;;;5052222;28;20053;-76
2023/01/28 13:32:55;;;;;;;5.63;3.73;;;;;;;;;;5052886;28;20507;-77
2023/01/28 13:35:39;;;;;;;7.57;3.30;;;;;;;;;;5054908;28;20066;-76
2023/01/28 13:38:19;;;;;;;7.67;3.53;;;;;;;;;;5055549;28;20104;-78
2023/01/28 13:41:05;;;;;;;7.27;3.60;;;;;;;;;;5055735;28;20056;-76
2023/01/28 13:43:38;;;;;;;6.27;2.73;;;;;;;;;;5054091;28;20076;-76
2023/01/28 13:46:27;;;;;;;6.30;3.10;;;;;;;;;;5055707;28;20025;-78
2023/01/28 13:48:56;;;;;;;7.93;3.93;;;;;;;;;;5054157;28;20055;-76
2023/01/28 13:51:26;;;;;;;9.27;3.37;;;;;;;;;;5055364;28;20032;-76
2023/01/28 13:54:28;;;;;;;5.93;3.67;;;;;;;;;;5055672;28;20499;-76
2023/01/28 13:56:56;;;;;;;7.55;4.00;;;;;;;;;;5042392;28;20511;-78
2023/01/28 13:59:57;;;;;;;5.27;3.47;;;;;;;;;;5053631;28;20441;-78
2023/01/28 14:02:37;;;;;;;10.47;4.20;;;;;;;;;;5053835;28;20021;-77
2023/01/28 14:05:15;;;;;;;7.00;3.20;;;;;;;;;;5053854;28;20035;-79
2023/01/28 14:08:02;;;;;;;7.23;4.23;;;;;;;;;;5055003;28;20029;-77
2023/01/28 14:10:43;;;;;;;7.67;4.60;;;;;;;;;;5053563;28;20017;-78
2023/01/28 14:13:35;;;;;;;6.63;3.77;;;;;;;;;;5053465;28;20028;-77
2023/01/28 14:16:41;;;;;;;8.13;4.63;;;;;;;;;;5054508;28;20120;-81
2023/01/28 14:19:11;;;;;;;8.37;4.20;;;;;;;;;;5053457;28;20040;-78
2023/01/28 14:21:37;;;;;;;9.20;3.37;;;;;;;;;;5055203;28;20032;-76
2023/01/28 14:24:03;;;;;;;4.83;3.97;;;;;;;;;;5054125;28;20029;-76
2023/01/28 14:26:35;;;;;;;8.87;4.57;;;;;;;;;;5053416;28;20025;-75
2023/01/28 14:29:03;;;;;;;5.70;3.53;;;;;;;;;;5055152;28;20485;-78
2023/01/28 14:31:33;;;;;;;9.07;4.10;;;;;;;;;;5054597;28;20033;-77
2023/01/28 14:34:34;;;;;;;7.33;4.77;;;;;;;;;;5054162;28;20096;-78
2023/01/28 14:37:07;;;;;;;7.43;4.17;;;;;;;;;;5053799;28;20047;-76
2023/01/28 14:39:43;;;;;;;9.73;4.63;;;;;;;;;;5036957;28;20458;-77
2023/01/28 14:42:22;;;;;;;6.30;4.00;;;;;;;;;;5054713;28;20036;-75
2023/01/28 14:45:05;;;;;;;16.57;3.93;;;;;;;;;;5053606;28;20179;-76
2023/01/28 14:47:41;;;;;;;10.20;5.17;;;;;;;;;;5054700;28;20535;-78
2023/01/28 14:50:45;;;;;;;9.63;4.73;;;;;;;;;;5053076;28;20033;-76
2023/01/28 14:53:28;;;;;;;6.23;3.27;;;;;;;;;;5054452;28;20025;-78
2023/01/28 14:55:57;;;;;;;;;;;;;;;;;;5053323;28;20028;-78
2023/01/28 14:58:31;;;;;;;8.53;4.00;;;;;;;;;;5052804;28;19909;-79
2023/01/28 15:00:58;;;;;;;7.20;4.07;;;;;;;;;;5054106;28;20142;-78
2023/01/28 15:03:26;;;;;;;6.20;3.27;;;;;;;;;;5054774;28;20043;-78
2023/01/28 15:06:11;;;;;;;5.80;4.03;;;;;;;;;;5052792;28;20166;-79
2023/01/28 15:08:37;;;;;;;11.17;4.13;;;;;;;;;;5054311;28;20056;-76
2023/01/28 15:11:07;;;;;;;7.97;4.43;;;;;;;;;;5052662;28;20056;-79
2023/01/28 15:13:37;;;;;;;9.50;4.97;;;;;;;;;;5052685;28;20040;-77
2023/01/28 15:16:04;;;;;;;6.97;4.60;;;;;;;;;;5052528;28;20377;-78
2023/01/28 15:18:34;;;;;;;11.30;4.47;;;;;;;;;;5035785;28;20035;-77
2023/01/28 15:21:01;;;;;;;7.37;4.17;;;;;;;;;;5052563;28;20070;-79
2023/01/28 15:23:32;;;;;;;8.23;4.70;;;;;;;;;;5035623;28;20059;-81
2023/01/28 15:26:03;;;;;;;7.10;5.28;;;;;;;;;;5052190;28;20024;-77
2023/01/28 15:28:31;;;;;;;14.87;6.30;;;;;;;;;;5053742;28;20025;-75